Ana Sayfa
METAR-TAF:

METAR-TAF

Havaalanları :

Butte, Montana, Amerika Birleşik Devletleri

Enlem: 45-57-17N, Boylam: 112-29-51W, yükseklik: 1690 m

Güncel hava durumu gözlemi

Rapor saat 19:53 UTC de 17 dakika önce yapıldı.
Rüzgar güneybatıdan 4 kt
Sıcaklık -1°C
Nem 43%
Basınç 1024 hPa
Görüş mesafesi: 16.1 km
6500 ft yükseklikte çok bulutlu

METAR: KBTM 181953Z AUTO 22004KT 10SM OVC065 M01/M12 A3025 RMK AO2 SLP286 T10061122

Saat: 13:10 (20:10 UTC)

Tahmin

Rapor saat 17:20 UTC de 2 saat ve 50 dakika önce yapıldı.
Ayın 18'si saat 18 UTC'den ayın 19'si saat 18 UTC'ye kadar geçerli Tahmin
Rüzgar değişken yönden 4 kt
Görüş mesafesi: 10 km
15000 ft yükseklikte parçalı çok bulutlu

TAF: KBTM 181720Z 1818/1918 VRB04KT P6SM BKN150

4.000'den fazla havaalanı için hava durumu gözlemleri ve tahminleri (METAR ve TAF raporları).

Kullanılabilir istasyonlar harita üzerinde sarı ve kırmızı noktalarla gösterilir.

İstasyonun adını görmek için fareyi noktanın üzerinde gezdirin.

Sonrasında hava gözlem ve tahminlerini görmek için tıklayın.

Haritayı değiştirmek için: yaklaştırmak için siyah artı işaretli yeşil düğmeye ve uzaklaştırmak için de eksi işaretli düğmeye hızla tıklayın; bitişik haritalar için yeşil okları kullanın.


METAR-TAF: